createdAt,value
2022-09-04T00:00:08.435Z,16.35
2022-09-04T00:04:07.208Z,16.39
2022-09-04T00:07:21.001Z,16.43
2022-09-04T00:10:29.942Z,16.50
2022-09-04T00:13:37.039Z,16.55
2022-09-04T00:16:55.712Z,16.53
2022-09-04T00:20:04.964Z,16.56
2022-09-04T00:23:18.522Z,16.61
2022-09-04T00:26:54.469Z,16.53
2022-09-04T00:30:07.556Z,16.53
2022-09-04T00:33:19.477Z,16.54
2022-09-04T00:36:22.991Z,16.55
2022-09-04T00:39:35.982Z,16.52
2022-09-04T00:43:23.114Z,16.48
2022-09-04T00:46:39.626Z,16.58
2022-09-04T00:49:44.824Z,16.57
2022-09-04T00:53:02.597Z,16.55
2022-09-04T00:56:37.002Z,16.60
2022-09-04T01:00:07.674Z,16.52
2022-09-04T01:03:12.801Z,16.52
2022-09-04T01:06:37.905Z,16.53
2022-09-04T01:10:00.337Z,16.52
2022-09-04T01:13:34.150Z,16.48
2022-09-04T01:16:52.332Z,16.47
2022-09-04T01:20:15.190Z,16.52
2022-09-04T01:23:31.802Z,16.56
2022-09-04T01:27:00.192Z,16.51
2022-09-04T01:30:10.697Z,16.51
2022-09-04T01:33:19.939Z,16.53
2022-09-04T01:36:44.044Z,16.47
2022-09-04T01:39:57.124Z,16.52
2022-09-04T01:43:14.133Z,16.54
2022-09-04T01:46:34.252Z,16.53
2022-09-04T01:49:39.005Z,16.50
2022-09-04T01:52:56.790Z,16.43
2022-09-04T01:56:04.650Z,16.48
2022-09-04T01:59:11.927Z,16.51
2022-09-04T02:02:23.550Z,16.48
2022-09-04T02:05:40.844Z,16.37
2022-09-04T02:08:55.371Z,16.35
2022-09-04T02:12:06.424Z,16.36
2022-09-04T02:15:39.122Z,16.37
2022-09-04T02:19:12.349Z,16.37
2022-09-04T02:22:25.327Z,16.42
2022-09-04T02:25:36.617Z,16.37
2022-09-04T02:28:54.233Z,16.31
2022-09-04T02:32:19.100Z,16.29
2022-09-04T02:35:26.776Z,16.23
2022-09-04T02:38:57.130Z,16.23
2022-09-04T02:42:33.081Z,16.23
2022-09-04T02:45:46.396Z,16.21
2022-09-04T02:49:00.450Z,16.26
2022-09-04T02:52:24.271Z,16.33
2022-09-04T02:55:49.402Z,16.38
2022-09-04T02:58:57.774Z,16.39
2022-09-04T03:02:04.666Z,16.40
2022-09-04T03:05:20.012Z,16.34
2022-09-04T03:08:27.781Z,16.44
2022-09-04T03:11:41.649Z,16.50
2022-09-04T03:14:49.577Z,16.47
2022-09-04T03:18:36.775Z,16.49
2022-09-04T03:21:45.289Z,16.50
2022-09-04T03:24:50.243Z,16.52
2022-09-04T03:27:56.808Z,16.53
2022-09-04T03:31:11.329Z,16.54
2022-09-04T03:34:24.382Z,16.48
2022-09-04T03:37:41.365Z,16.54
2022-09-04T03:41:25.312Z,16.52
2022-09-04T03:44:36.411Z,16.51
2022-09-04T03:47:50.502Z,16.56
2022-09-04T03:51:25.835Z,16.53
2022-09-04T03:54:44.512Z,16.57
2022-09-04T03:57:56.562Z,16.52
2022-09-04T04:01:24.848Z,16.47
2022-09-04T04:04:52.288Z,16.51
2022-09-04T04:08:17.573Z,16.52
2022-09-04T04:11:43.702Z,16.55
2022-09-04T04:15:10.400Z,16.54
2022-09-04T04:18:22.180Z,16.48
2022-09-04T04:21:55.691Z,16.52
2022-09-04T04:24:57.779Z,16.49
2022-09-04T04:28:22.261Z,16.47
2022-09-04T04:31:38.934Z,16.41
2022-09-04T04:35:03.219Z,16.47
2022-09-04T04:38:18.742Z,16.47
2022-09-04T04:41:24.953Z,16.49
2022-09-04T04:45:23.914Z,16.44
2022-09-04T04:48:31.948Z,16.29
2022-09-04T04:51:52.326Z,16.27
2022-09-04T04:55:18.278Z,16.37
2022-09-04T04:58:51.602Z,16.42
2022-09-04T05:02:26.700Z,16.43
2022-09-04T05:05:46.847Z,16.52
2022-09-04T05:09:02.063Z,16.56
2022-09-04T05:12:49.282Z,16.55
2022-09-04T05:16:18.952Z,16.53
2022-09-04T05:19:41.601Z,16.51
2022-09-04T05:22:49.589Z,16.55
2022-09-04T05:26:06.458Z,16.60
2022-09-04T05:29:21.192Z,16.59
2022-09-04T05:32:33.332Z,16.67
2022-09-04T05:35:56.343Z,16.60
2022-09-04T05:39:30.643Z,16.58
2022-09-04T05:42:41.971Z,16.55
2022-09-04T05:45:57.608Z,16.63
2022-09-04T05:49:45.511Z,16.63
2022-09-04T05:53:13.957Z,16.72
2022-09-04T05:56:40.285Z,16.70
2022-09-04T05:59:55.080Z,16.73
2022-09-04T06:03:13.698Z,16.74
2022-09-04T06:06:37.028Z,16.72
2022-09-04T06:10:07.981Z,16.71
2022-09-04T06:13:09.882Z,16.74
2022-09-04T06:16:26.935Z,16.77
2022-09-04T06:19:40.943Z,16.78
2022-09-04T06:23:20.414Z,16.72
2022-09-04T06:26:38.004Z,16.59
2022-09-04T06:30:09.179Z,16.69
2022-09-04T06:33:26.704Z,16.76
2022-09-04T06:36:57.979Z,16.78
2022-09-04T06:40:12.736Z,16.76
2022-09-04T06:43:36.526Z,16.67
2022-09-04T06:46:54.306Z,16.66
2022-09-04T06:50:16.508Z,16.66
2022-09-04T06:53:43.838Z,16.75
2022-09-04T06:56:56.124Z,16.74
2022-09-04T07:00:18.726Z,16.89
2022-09-04T07:03:41.980Z,16.94
2022-09-04T07:07:08.753Z,17.03
2022-09-04T07:10:17.448Z,17.11
2022-09-04T07:13:41.395Z,17.17
2022-09-04T07:17:00.671Z,17.37
2022-09-04T07:20:19.948Z,17.50
2022-09-04T07:23:23.839Z,17.52
2022-09-04T07:26:49.062Z,17.72
2022-09-04T07:29:59.108Z,17.83
2022-09-04T07:33:16.686Z,17.66
2022-09-04T07:36:37.327Z,17.53
2022-09-04T07:39:49.504Z,17.60
2022-09-04T07:43:12.963Z,17.72
2022-09-04T07:46:30.647Z,17.32
2022-09-04T07:49:42.787Z,17.59
2022-09-04T07:53:14.955Z,17.49
2022-09-04T07:56:29.779Z,17.49
2022-09-04T07:59:38.966Z,17.34
2022-09-04T08:02:53.396Z,17.18
2022-09-04T08:06:12.168Z,17.32
2022-09-04T08:09:58.997Z,17.52
2022-09-04T08:13:15.548Z,17.71
2022-09-04T08:16:39.529Z,17.43
2022-09-04T08:20:06.981Z,17.43
2022-09-04T08:23:28.711Z,17.23
2022-09-04T08:26:59.816Z,17.54
2022-09-04T08:30:09.938Z,17.31
2022-09-04T08:33:24.336Z,17.27
2022-09-04T08:36:55.793Z,17.26
2022-09-04T08:40:16.203Z,17.20
2022-09-04T08:43:25.850Z,17.53
2022-09-04T08:46:34.570Z,17.72
2022-09-04T08:49:57.818Z,17.56
2022-09-04T08:53:14.349Z,17.89
2022-09-04T08:56:31.760Z,17.73
2022-09-04T08:59:38.794Z,17.75
2022-09-04T09:02:58.991Z,17.87
2022-09-04T09:06:38.301Z,17.95
2022-09-04T09:10:15.906Z,18.07
2022-09-04T09:13:18.144Z,18.11
2022-09-04T09:16:22.780Z,18.28
2022-09-04T09:19:27.829Z,18.47
2022-09-04T09:22:49.334Z,18.61
2022-09-04T09:26:10.982Z,18.65
2022-09-04T09:29:37.698Z,17.83
2022-09-04T09:32:54.837Z,18.28
2022-09-04T09:36:12.477Z,18.17
2022-09-04T09:39:38.171Z,18.36
2022-09-04T09:43:02.222Z,17.99
2022-09-04T09:46:04.925Z,18.62
2022-09-04T09:49:52.149Z,18.91
2022-09-04T09:53:46.450Z,19.08
2022-09-04T09:57:39.188Z,18.97
2022-09-04T10:00:53.156Z,19.36
2022-09-04T10:04:21.687Z,19.73
2022-09-04T10:07:52.092Z,19.68
2022-09-04T10:11:29.098Z,19.81
2022-09-04T10:15:23.782Z,19.83
2022-09-04T10:18:33.583Z,20.09
2022-09-04T10:21:53.729Z,20.45
2022-09-04T10:25:29.406Z,20.31
2022-09-04T10:28:47.867Z,20.84
2022-09-04T10:32:05.831Z,20.45
2022-09-04T10:35:09.858Z,20.45
2022-09-04T10:39:29.242Z,20.66
2022-09-04T10:42:40.658Z,20.83
2022-09-04T10:45:58.914Z,21.34
2022-09-04T10:49:04.478Z,21.66
2022-09-04T10:52:34.678Z,22.09
2022-09-04T10:55:42.932Z,22.02
2022-09-04T10:59:11.134Z,21.81
2022-09-04T11:02:34.804Z,21.71
2022-09-04T11:05:57.625Z,21.64
2022-09-04T11:09:22.281Z,21.27
2022-09-04T11:12:53.284Z,21.79
2022-09-04T11:16:14.259Z,22.50
2022-09-04T11:19:25.666Z,21.82
2022-09-04T11:22:59.612Z,22.06
2022-09-04T11:26:11.085Z,22.12
2022-09-04T11:29:20.507Z,22.34
2022-09-04T11:33:02.714Z,22.82
2022-09-04T11:36:19.223Z,23.17
2022-09-04T11:39:51.108Z,22.83
2022-09-04T11:43:14.808Z,22.32
2022-09-04T11:46:53.686Z,23.13
2022-09-04T11:50:30.247Z,23.43
2022-09-04T11:53:48.820Z,22.44
2022-09-04T11:57:15.839Z,22.73
2022-09-04T12:00:19.535Z,22.63
2022-09-04T12:03:30.457Z,22.62
2022-09-04T12:07:02.399Z,22.09
2022-09-04T12:10:50.933Z,21.74
2022-09-04T12:14:18.966Z,21.81
2022-09-04T12:18:01.888Z,21.92
2022-09-04T12:21:35.546Z,22.13
2022-09-04T12:25:05.995Z,22.32
2022-09-04T12:28:27.731Z,22.44
2022-09-04T12:31:36.608Z,22.74
2022-09-04T12:35:09.307Z,22.79
2022-09-04T12:41:20.568Z,22.71
2022-09-04T12:44:30.387Z,22.82
2022-09-04T12:47:55.525Z,23.02
2022-09-04T12:50:59.784Z,23.30
2022-09-04T12:54:10.830Z,23.43
2022-09-04T12:57:34.918Z,23.41
2022-09-04T13:01:04.662Z,23.36
2022-09-04T13:04:28.686Z,23.35
2022-09-04T13:07:44.311Z,23.09
2022-09-04T13:10:56.045Z,23.32
2022-09-04T13:14:54.102Z,23.29
2022-09-04T13:18:40.598Z,23.37
2022-09-04T13:21:51.931Z,23.41
2022-09-04T13:25:01.602Z,23.60
2022-09-04T13:28:45.087Z,23.79
2022-09-04T13:32:23.981Z,23.97
2022-09-04T13:35:50.243Z,23.88
2022-09-04T13:39:07.686Z,24.02
2022-09-04T13:42:44.467Z,23.96
2022-09-04T13:45:53.364Z,23.89
2022-09-04T13:49:00.185Z,23.90
2022-09-04T13:52:18.566Z,23.91
2022-09-04T13:55:28.078Z,23.92
2022-09-04T13:58:42.374Z,23.94
2022-09-04T14:01:54.606Z,23.33
2022-09-04T14:05:01.559Z,23.29
2022-09-04T14:08:11.482Z,23.18
2022-09-04T14:11:51.136Z,22.90
2022-09-04T14:15:08.190Z,22.81
2022-09-04T14:18:13.715Z,22.76
2022-09-04T14:22:09.571Z,22.37
2022-09-04T14:25:34.777Z,22.05
2022-09-04T14:28:54.932Z,22.37
2022-09-04T14:32:19.098Z,22.43
2022-09-04T14:35:36.406Z,22.57
2022-09-04T14:38:49.217Z,22.52
2022-09-04T14:42:18.656Z,22.44
2022-09-04T14:45:52.112Z,22.33
2022-09-04T14:49:07.747Z,22.06
2022-09-04T14:52:20.270Z,21.86
2022-09-04T14:55:29.681Z,21.61
2022-09-04T14:58:37.993Z,21.70
2022-09-04T15:02:00.500Z,21.78
2022-09-04T15:05:05.474Z,21.93
2022-09-04T15:08:08.312Z,22.09
2022-09-04T15:11:31.189Z,22.07
2022-09-04T15:14:36.744Z,22.54
2022-09-04T15:17:40.399Z,22.79
2022-09-04T15:21:09.893Z,22.85
2022-09-04T15:24:25.774Z,22.98
2022-09-04T15:28:03.930Z,22.97
2022-09-04T15:31:21.259Z,23.07
2022-09-04T15:34:26.723Z,22.94
2022-09-04T15:37:28.786Z,22.99
2022-09-04T15:41:14.995Z,23.02
2022-09-04T15:44:40.034Z,22.93
2022-09-04T15:48:05.920Z,22.67
2022-09-04T15:51:29.252Z,22.65
2022-09-04T15:54:31.648Z,22.50
2022-09-04T15:57:36.317Z,22.32
2022-09-04T16:00:56.868Z,22.29
2022-09-04T16:04:07.478Z,22.23
2022-09-04T16:07:20.281Z,22.11
2022-09-04T16:10:26.131Z,22.02
2022-09-04T16:13:29.029Z,21.92
2022-09-04T16:16:34.241Z,21.77
2022-09-04T16:19:50.127Z,21.49
2022-09-04T16:23:01.055Z,21.39
2022-09-04T16:26:11.389Z,21.20
2022-09-04T16:29:27.810Z,21.16
2022-09-04T16:32:32.359Z,21.09
2022-09-04T16:35:36.807Z,20.92
2022-09-04T16:38:47.643Z,20.61
2022-09-04T16:41:55.086Z,20.51
2022-09-04T16:45:01.356Z,20.31
2022-09-04T16:48:25.095Z,20.18
2022-09-04T16:51:41.314Z,20.08
2022-09-04T16:54:49.318Z,20.09
2022-09-04T16:58:02.558Z,19.93
2022-09-04T17:01:25.977Z,19.70
2022-09-04T17:04:40.112Z,19.60
2022-09-04T17:07:49.124Z,19.62
2022-09-04T17:11:15.081Z,19.50
2022-09-04T17:14:23.183Z,19.42
2022-09-04T17:17:30.550Z,19.31
2022-09-04T17:23:35.389Z,19.24
2022-09-04T17:29:17.342Z,18.91
2022-09-04T17:29:19.625Z,19.23
2022-09-04T17:31:45.913Z,18.93
2022-09-04T17:40:36.705Z,18.80
2022-09-04T17:40:50.008Z,18.67
2022-09-04T17:42:25.253Z,18.44
2022-09-04T17:46:07.964Z,18.45
2022-09-04T17:49:17.814Z,18.49
2022-09-04T17:52:28.790Z,18.46
2022-09-04T17:55:38.804Z,18.39
2022-09-04T17:59:21.870Z,18.17
2022-09-04T18:02:46.052Z,18.11
2022-09-04T18:05:53.033Z,18.05
2022-09-04T18:09:12.817Z,17.87
2022-09-04T18:12:21.938Z,17.89
2022-09-04T18:15:34.899Z,17.81
2022-09-04T18:18:37.699Z,17.84
2022-09-04T18:22:15.705Z,17.71
2022-09-04T18:25:23.179Z,17.53
2022-09-04T18:28:50.788Z,17.39
2022-09-04T18:37:11.131Z,17.45
2022-09-04T18:37:22.454Z,17.40
2022-09-04T18:39:58.029Z,17.27
2022-09-04T18:50:20.529Z,17.19
2022-09-04T18:50:34.794Z,16.94
2022-09-04T18:50:36.970Z,17.12
2022-09-04T18:53:38.571Z,17.01
2022-09-04T18:56:53.421Z,17.17
2022-09-04T19:00:08.307Z,17.15
2022-09-04T19:03:21.967Z,17.01
2022-09-04T19:06:39.359Z,16.94
2022-09-04T19:10:11.263Z,16.89
2022-09-04T19:13:30.426Z,16.89
2022-09-04T19:16:58.353Z,16.98
2022-09-04T19:20:09.795Z,16.95
2022-09-04T19:23:18.774Z,16.96
2022-09-04T19:26:29.231Z,16.93
2022-09-04T19:29:31.445Z,16.80
2022-09-04T19:33:00.517Z,16.73
2022-09-04T19:36:10.192Z,16.71
2022-09-04T19:46:01.428Z,16.81
2022-09-04T19:46:06.919Z,16.73
2022-09-04T19:46:29.369Z,16.80
2022-09-04T19:53:19.979Z,16.76
2022-09-04T19:53:38.928Z,16.78
2022-09-04T19:57:32.325Z,16.61
2022-09-04T20:00:44.376Z,16.43
2022-09-04T20:03:49.560Z,16.34
2022-09-04T20:06:56.646Z,16.36
2022-09-04T20:10:04.517Z,16.43
2022-09-04T20:13:44.721Z,16.32
2022-09-04T20:16:59.604Z,16.25
2022-09-04T20:20:04.462Z,16.34
2022-09-04T20:23:35.063Z,16.25
2022-09-04T20:26:42.932Z,16.23
2022-09-04T20:29:54.784Z,16.23
2022-09-04T20:33:21.299Z,16.16
2022-09-04T20:36:32.107Z,16.06
2022-09-04T20:39:44.830Z,16.04
2022-09-04T20:42:57.036Z,16.05
2022-09-04T20:52:43.140Z,16.02
2022-09-04T20:52:53.302Z,15.97
2022-09-04T20:54:28.762Z,15.95
2022-09-04T21:03:06.439Z,15.87
2022-09-04T21:03:21.750Z,15.76
2022-09-04T21:05:02.981Z,15.72
2022-09-04T21:08:15.214Z,15.68
2022-09-04T21:11:40.827Z,15.73
2022-09-04T21:14:47.240Z,15.66
2022-09-04T21:17:58.638Z,15.76
2022-09-04T21:21:09.646Z,15.75
2022-09-04T21:24:38.765Z,15.54
2022-09-04T21:27:46.951Z,15.58
2022-09-04T21:31:09.170Z,15.45
2022-09-04T21:34:26.263Z,15.56
2022-09-04T21:37:42.202Z,15.55
2022-09-04T21:41:16.174Z,15.46
2022-09-04T21:44:26.943Z,15.47
2022-09-04T21:47:45.009Z,15.34
2022-09-04T21:51:01.536Z,15.42
2022-09-04T21:54:37.401Z,15.44
2022-09-04T22:02:31.820Z,15.48
2022-09-04T22:02:35.906Z,15.45
2022-09-04T22:05:10.921Z,15.39
2022-09-04T22:13:29.758Z,15.41
2022-09-04T22:13:35.129Z,15.32
2022-09-04T22:15:39.488Z,15.21
2022-09-04T22:19:05.677Z,15.12
2022-09-04T22:22:43.142Z,15.12
2022-09-04T22:26:09.159Z,15.08
2022-09-04T22:29:58.375Z,14.99
2022-09-04T22:33:18.965Z,14.95
2022-09-04T22:36:32.950Z,14.81
2022-09-04T22:39:50.290Z,14.87
2022-09-04T22:43:12.379Z,14.81
2022-09-04T22:46:33.274Z,14.87
2022-09-04T22:50:07.966Z,14.86
2022-09-04T22:53:47.197Z,14.73
2022-09-04T22:57:05.364Z,14.83
2022-09-04T23:00:14.792Z,14.72
2022-09-04T23:03:51.256Z,14.60
2022-09-04T23:12:39.036Z,14.64
2022-09-04T23:13:56.457Z,14.58
2022-09-04T23:15:23.698Z,14.53
2022-09-04T23:25:56.839Z,14.47
2022-09-04T23:26:46.246Z,14.51
2022-09-04T23:26:48.239Z,14.39
2022-09-04T23:30:25.309Z,14.42
2022-09-04T23:34:08.050Z,14.29
2022-09-04T23:37:44.457Z,14.16
2022-09-04T23:41:18.036Z,14.15
2022-09-04T23:44:36.099Z,14.16
2022-09-04T23:48:09.516Z,14.01
2022-09-04T23:51:32.314Z,14.02
2022-09-04T23:54:46.262Z,13.95
2022-09-04T23:58:26.399Z,13.97
